createdAt,value
2022-10-09T00:02:36.520Z,4.63
2022-10-09T00:05:26.982Z,4.70
2022-10-09T00:08:14.046Z,4.13
2022-10-09T00:11:01.312Z,4.43
2022-10-09T00:13:48.917Z,4.00
2022-10-09T00:16:36.669Z,4.33
2022-10-09T00:19:24.075Z,3.80
2022-10-09T00:22:12.725Z,3.70
2022-10-09T00:25:00.294Z,3.83
2022-10-09T00:27:47.304Z,3.30
2022-10-09T00:30:34.494Z,3.57
2022-10-09T00:33:22.173Z,3.80
2022-10-09T00:36:13.075Z,3.90
2022-10-09T00:39:01.626Z,3.90
2022-10-09T00:41:48.993Z,4.00
2022-10-09T00:44:57.402Z,3.90
2022-10-09T00:47:48.693Z,3.90
2022-10-09T00:50:42.854Z,3.10
2022-10-09T00:53:32.173Z,4.03
2022-10-09T00:56:20.754Z,4.90
2022-10-09T00:59:09.239Z,4.17
2022-10-09T01:01:56.622Z,4.03
2022-10-09T01:04:43.801Z,4.40
2022-10-09T01:07:40.031Z,4.60
2022-10-09T01:10:37.690Z,3.90
2022-10-09T01:13:34.665Z,4.20
2022-10-09T01:16:27.650Z,3.80
2022-10-09T01:19:33.595Z,4.17
2022-10-09T01:22:37.012Z,3.90
2022-10-09T01:25:33.751Z,3.63
2022-10-09T01:28:25.289Z,3.63
2022-10-09T01:31:15.398Z,3.70
2022-10-09T01:34:03.261Z,3.70
2022-10-09T01:36:52.033Z,4.00
2022-10-09T01:39:40.437Z,3.87
2022-10-09T01:42:31.646Z,3.33
2022-10-09T01:45:20.169Z,3.30
2022-10-09T01:48:11.271Z,4.00
2022-10-09T01:51:04.980Z,3.60
2022-10-09T01:53:56.036Z,3.63
2022-10-09T01:56:47.323Z,3.50
2022-10-09T01:59:41.284Z,3.63
2022-10-09T02:02:30.257Z,3.90
2022-10-09T02:05:26.953Z,4.07
2022-10-09T02:08:18.084Z,3.73
2022-10-09T02:11:06.610Z,3.27
2022-10-09T02:13:55.152Z,3.20
2022-10-09T02:16:46.673Z,3.10
2022-10-09T02:19:41.184Z,3.60
2022-10-09T02:22:32.137Z,3.13
2022-10-09T02:25:20.007Z,4.00
2022-10-09T02:28:07.701Z,4.07
2022-10-09T02:31:05.255Z,4.10
2022-10-09T02:33:57.432Z,3.80
2022-10-09T02:36:45.874Z,3.60
2022-10-09T02:39:32.942Z,4.60
2022-10-09T02:42:20.289Z,3.93
2022-10-09T02:45:09.952Z,3.37
2022-10-09T02:47:57.250Z,3.60
2022-10-09T02:50:44.469Z,3.20
2022-10-09T02:53:33.303Z,3.43
2022-10-09T02:56:20.501Z,3.80
2022-10-09T02:59:07.547Z,3.43
2022-10-09T03:01:55.858Z,3.20
2022-10-09T03:04:43.103Z,3.87
2022-10-09T03:07:30.247Z,3.27
2022-10-09T03:10:19.579Z,3.00
2022-10-09T03:13:07.241Z,3.00
2022-10-09T03:15:54.573Z,3.03
2022-10-09T03:18:42.402Z,3.40
2022-10-09T03:21:30.005Z,3.00
2022-10-09T03:24:17.466Z,3.30
2022-10-09T03:27:06.389Z,3.73
2022-10-09T03:29:53.678Z,3.13
2022-10-09T03:32:40.822Z,3.10
2022-10-09T03:35:28.005Z,2.97
2022-10-09T03:38:15.507Z,2.93
2022-10-09T03:41:04.736Z,3.27
2022-10-09T03:43:53.336Z,3.40
2022-10-09T03:46:40.812Z,3.53
2022-10-09T03:49:27.916Z,2.87
2022-10-09T03:52:14.917Z,3.10
2022-10-09T03:55:02.351Z,3.20
2022-10-09T03:57:49.634Z,3.40
2022-10-09T04:00:38.699Z,3.03
2022-10-09T04:03:27.229Z,3.50
2022-10-09T04:06:14.307Z,3.67
2022-10-09T04:09:02.374Z,3.50
2022-10-09T04:11:49.681Z,2.80
2022-10-09T04:14:36.694Z,3.03
2022-10-09T04:17:25.345Z,3.20
2022-10-09T04:20:12.686Z,3.10
2022-10-09T04:22:59.613Z,2.80
2022-10-09T04:25:46.722Z,2.97
2022-10-09T04:28:34.723Z,3.07
2022-10-09T04:31:21.993Z,2.73
2022-10-09T04:34:10.643Z,3.20
2022-10-09T04:36:57.998Z,2.53
2022-10-09T04:39:45.203Z,2.90
2022-10-09T04:42:32.569Z,2.87
2022-10-09T04:45:19.717Z,2.90
2022-10-09T04:48:06.950Z,2.67
2022-10-09T04:50:55.785Z,2.90
2022-10-09T04:53:44.091Z,2.77
2022-10-09T04:56:31.315Z,2.53
2022-10-09T04:59:18.430Z,2.67
2022-10-09T05:02:05.960Z,2.47
2022-10-09T05:04:52.805Z,2.57
2022-10-09T05:07:41.280Z,2.50
2022-10-09T05:10:28.529Z,2.60
2022-10-09T05:13:15.605Z,2.60
2022-10-09T05:16:04.000Z,2.97
2022-10-09T05:18:54.063Z,2.77
2022-10-09T05:21:41.181Z,2.27
2022-10-09T05:24:30.326Z,3.00
2022-10-09T05:27:17.666Z,2.43
2022-10-09T05:30:05.612Z,2.40
2022-10-09T05:32:52.958Z,2.53
2022-10-09T05:35:40.278Z,2.80
2022-10-09T05:38:28.527Z,2.43
2022-10-09T05:41:19.386Z,2.53
2022-10-09T05:44:06.624Z,2.67
2022-10-09T05:46:54.094Z,2.23
2022-10-09T05:49:41.039Z,2.43
2022-10-09T05:52:28.332Z,2.80
2022-10-09T05:55:15.634Z,2.00
2022-10-09T05:58:04.860Z,2.30
2022-10-09T06:00:52.328Z,2.27
2022-10-09T06:03:40.544Z,2.37
2022-10-09T06:06:10.337Z,2.23
2022-10-09T06:08:39.829Z,2.80
2022-10-09T06:11:13.614Z,2.50
2022-10-09T06:13:44.748Z,2.67
2022-10-09T06:16:15.324Z,2.43
2022-10-09T06:18:49.277Z,2.00
2022-10-09T06:21:18.731Z,2.67
2022-10-09T06:23:51.278Z,2.47
2022-10-09T06:26:21.426Z,2.33
2022-10-09T06:28:52.400Z,2.73
2022-10-09T06:31:23.975Z,2.27
2022-10-09T06:33:54.883Z,2.50
2022-10-09T06:36:26.247Z,2.60
2022-10-09T06:38:55.840Z,2.27
2022-10-09T06:41:26.698Z,2.60
2022-10-09T06:43:58.341Z,2.30
2022-10-09T06:46:30.048Z,2.67
2022-10-09T06:49:00.753Z,2.37
2022-10-09T06:51:30.783Z,2.27
2022-10-09T06:54:02.020Z,2.50
2022-10-09T06:56:33.262Z,2.20
2022-10-09T06:59:05.005Z,2.13
2022-10-09T07:01:34.034Z,2.00
2022-10-09T07:04:07.035Z,1.80
2022-10-09T07:06:39.888Z,2.30
2022-10-09T07:09:11.828Z,2.50
2022-10-09T07:11:43.113Z,2.30
2022-10-09T07:14:15.970Z,2.30
2022-10-09T07:16:48.373Z,2.63
2022-10-09T07:19:18.708Z,2.43
2022-10-09T07:21:50.117Z,2.23
2022-10-09T07:24:20.598Z,2.40
2022-10-09T07:26:50.030Z,2.73
2022-10-09T07:29:21.148Z,2.10
2022-10-09T07:31:50.731Z,2.30
2022-10-09T07:34:19.355Z,2.10
2022-10-09T07:36:47.957Z,2.10
2022-10-09T07:39:19.054Z,2.43
2022-10-09T07:41:47.933Z,2.47
2022-10-09T07:44:16.695Z,2.30
2022-10-09T07:46:46.977Z,2.07
2022-10-09T07:49:15.701Z,2.10
2022-10-09T07:51:44.321Z,2.33
2022-10-09T07:54:13.010Z,2.03
2022-10-09T07:56:41.633Z,2.20
2022-10-09T07:59:14.231Z,2.20
2022-10-09T08:01:43.537Z,2.45
2022-10-09T08:04:13.626Z,3.00
2022-10-09T08:06:42.244Z,2.38
2022-10-09T08:09:10.871Z,2.03
2022-10-09T08:11:41.222Z,2.00
2022-10-09T08:14:19.182Z,2.65
2022-10-09T08:16:48.633Z,2.20
2022-10-09T08:19:18.600Z,2.53
2022-10-09T08:21:47.196Z,2.33
2022-10-09T08:24:15.888Z,2.10
2022-10-09T08:26:45.411Z,2.75
2022-10-09T08:29:16.070Z,2.33
2022-10-09T08:31:44.753Z,2.80
2022-10-09T08:34:14.204Z,2.45
2022-10-09T08:36:44.518Z,2.35
2022-10-09T08:39:13.346Z,2.13
2022-10-09T08:41:46.645Z,2.10
2022-10-09T08:44:20.457Z,2.40
2022-10-09T08:47:03.292Z,2.05
2022-10-09T08:49:41.923Z,2.15
2022-10-09T08:52:36.980Z,2.35
2022-10-09T08:55:16.885Z,2.40
2022-10-09T08:57:48.553Z,2.03
2022-10-09T09:00:19.653Z,2.17
2022-10-09T09:03:30.127Z,2.13
2022-10-09T09:06:07.467Z,1.85
2022-10-09T09:08:46.743Z,2.00
2022-10-09T09:11:25.106Z,2.28
2022-10-09T09:14:04.659Z,2.20
2022-10-09T09:16:40.908Z,1.85
2022-10-09T09:19:33.890Z,2.20
2022-10-09T09:22:02.895Z,2.15
2022-10-09T09:24:39.171Z,1.80
2022-10-09T09:27:15.138Z,2.30
2022-10-09T09:29:48.599Z,1.88
2022-10-09T09:32:23.091Z,2.30
2022-10-09T09:34:52.063Z,1.92
2022-10-09T09:37:20.742Z,2.20
2022-10-09T09:42:39.589Z,1.77
2022-10-09T09:45:19.121Z,2.00
2022-10-09T09:47:54.397Z,1.80
2022-10-09T09:50:47.141Z,1.88
2022-10-09T09:53:27.301Z,2.03
2022-10-09T09:55:58.002Z,1.95
2022-10-09T09:58:37.484Z,2.30
2022-10-09T10:01:08.211Z,1.92
2022-10-09T10:03:37.592Z,2.10
2022-10-09T10:06:21.808Z,2.20
2022-10-09T10:09:01.159Z,1.80
2022-10-09T10:11:33.207Z,2.00
2022-10-09T10:14:08.474Z,2.03
2022-10-09T10:16:39.896Z,2.03
2022-10-09T10:19:21.691Z,1.90
2022-10-09T10:21:57.224Z,1.60
2022-10-09T10:24:30.061Z,2.25
2022-10-09T10:27:06.547Z,1.90
2022-10-09T10:29:40.168Z,1.65
2022-10-09T10:32:18.796Z,1.77
2022-10-09T10:34:54.585Z,1.80
2022-10-09T10:37:32.806Z,1.50
2022-10-09T10:40:08.822Z,2.10
2022-10-09T10:42:46.675Z,1.70
2022-10-09T10:45:19.363Z,1.92
2022-10-09T10:47:53.709Z,1.50
2022-10-09T10:50:22.915Z,1.70
2022-10-09T10:53:07.821Z,1.77
2022-10-09T10:55:50.283Z,1.83
2022-10-09T10:58:31.548Z,1.50
2022-10-09T11:01:22.438Z,1.50
2022-10-09T11:04:23.642Z,1.20
2022-10-09T11:07:03.168Z,1.50
2022-10-09T11:09:40.737Z,1.48
2022-10-09T11:12:24.855Z,1.48
2022-10-09T11:15:11.101Z,1.80
2022-10-09T11:17:46.069Z,1.70
2022-10-09T11:20:49.825Z,1.60
2022-10-09T11:23:33.638Z,1.40
2022-10-09T11:26:12.440Z,1.38
2022-10-09T11:28:47.898Z,1.42
2022-10-09T11:31:23.739Z,1.50
2022-10-09T11:34:00.094Z,1.35
2022-10-09T11:36:35.430Z,1.60
2022-10-09T11:39:06.726Z,1.65
2022-10-09T11:41:37.463Z,1.45
2022-10-09T11:44:24.369Z,1.55
2022-10-09T11:47:08.781Z,1.67
2022-10-09T11:49:53.995Z,1.48
2022-10-09T11:52:31.581Z,1.40
2022-10-09T11:55:17.264Z,1.23
2022-10-09T11:57:46.211Z,1.48
2022-10-09T12:00:16.300Z,1.40
2022-10-09T12:02:57.625Z,1.63
2022-10-09T12:05:43.915Z,1.23
2022-10-09T12:08:19.278Z,1.40
2022-10-09T12:10:55.682Z,1.50
2022-10-09T12:13:45.152Z,1.70
2022-10-09T12:16:46.777Z,1.38
2022-10-09T12:19:20.892Z,1.50
2022-10-09T12:21:55.485Z,1.50
2022-10-09T12:24:28.092Z,1.30
2022-10-09T12:27:03.165Z,1.30
2022-10-09T12:29:41.363Z,1.40
2022-10-09T12:32:17.279Z,1.45
2022-10-09T12:34:49.264Z,1.45
2022-10-09T12:37:20.146Z,1.58
2022-10-09T12:39:51.172Z,1.20
2022-10-09T12:42:24.846Z,2.00
2022-10-09T12:44:55.971Z,1.75
2022-10-09T12:47:27.601Z,1.70
2022-10-09T12:50:00.945Z,1.60
2022-10-09T12:52:29.897Z,1.60
2022-10-09T12:54:58.510Z,1.80
2022-10-09T12:57:28.090Z,1.50
2022-10-09T12:59:57.545Z,1.77
2022-10-09T13:02:26.343Z,1.98
2022-10-09T13:05:02.307Z,1.67
2022-10-09T13:07:32.621Z,1.55
2022-10-09T13:10:06.443Z,1.70
2022-10-09T13:12:35.803Z,1.70
2022-10-09T13:15:08.744Z,1.65
2022-10-09T13:17:40.570Z,1.65
2022-10-09T13:23:05.061Z,1.55
2022-10-09T13:25:37.829Z,1.80
2022-10-09T13:28:07.219Z,1.73
2022-10-09T13:30:36.031Z,1.70
2022-10-09T13:33:04.987Z,1.60
2022-10-09T13:35:33.629Z,1.60
2022-10-09T13:38:03.628Z,1.40
2022-10-09T13:40:32.299Z,1.73
2022-10-09T13:43:04.183Z,1.52
2022-10-09T13:45:32.901Z,1.95
2022-10-09T13:48:01.629Z,1.60
2022-10-09T13:50:30.324Z,1.90
2022-10-09T13:53:00.216Z,1.60
2022-10-09T13:55:30.593Z,1.83
2022-10-09T13:57:59.368Z,1.80
2022-10-09T14:00:28.104Z,1.80
2022-10-09T14:02:57.013Z,1.77
2022-10-09T14:05:26.937Z,1.80
2022-10-09T14:07:56.141Z,2.65
2022-10-09T14:10:24.907Z,1.80
2022-10-09T14:12:55.535Z,1.60
2022-10-09T14:15:24.224Z,1.60
2022-10-09T14:17:52.833Z,1.88
2022-10-09T14:20:25.107Z,1.52
2022-10-09T14:22:53.854Z,1.70
2022-10-09T14:25:22.512Z,1.50
2022-10-09T14:27:51.095Z,1.50
2022-10-09T14:30:21.203Z,1.30
2022-10-09T14:32:51.243Z,1.60
2022-10-09T14:35:21.481Z,1.90
2022-10-09T14:37:50.662Z,2.03
2022-10-09T14:40:19.446Z,1.58
2022-10-09T14:42:48.421Z,1.48
2022-10-09T14:45:17.491Z,2.00
2022-10-09T14:47:47.491Z,1.60
2022-10-09T14:50:16.166Z,1.60
2022-10-09T14:52:44.833Z,1.60
2022-10-09T14:55:13.505Z,1.88
2022-10-09T14:57:42.199Z,1.50
2022-10-09T15:00:13.051Z,1.85
2022-10-09T15:05:12.752Z,1.55
2022-10-09T15:07:41.980Z,1.65
2022-10-09T15:10:12.294Z,1.73
2022-10-09T15:12:41.015Z,1.88
2022-10-09T15:15:11.028Z,1.52
2022-10-09T15:17:39.998Z,1.67
2022-10-09T15:20:10.065Z,1.50
2022-10-09T15:22:40.025Z,1.55
2022-10-09T15:25:10.054Z,1.35
2022-10-09T15:27:38.739Z,1.38
2022-10-09T15:30:09.051Z,1.60
2022-10-09T15:32:37.705Z,1.40
2022-10-09T15:35:07.786Z,1.50
2022-10-09T15:37:36.432Z,1.35
2022-10-09T15:40:07.524Z,1.77
2022-10-09T15:42:37.067Z,1.70
2022-10-09T15:45:06.881Z,1.45
2022-10-09T15:47:50.497Z,1.63
2022-10-09T15:50:20.030Z,1.63
2022-10-09T15:52:48.886Z,1.40
2022-10-09T15:55:19.065Z,1.58
2022-10-09T15:57:47.714Z,1.55
2022-10-09T16:00:16.979Z,1.70
2022-10-09T16:02:45.604Z,2.20
2022-10-09T16:05:14.218Z,1.60
2022-10-09T16:07:42.816Z,1.85
2022-10-09T16:10:11.950Z,2.00
2022-10-09T16:12:41.954Z,1.50
2022-10-09T16:15:11.741Z,1.50
2022-10-09T16:17:40.532Z,1.90
2022-10-09T16:20:10.502Z,1.70
2022-10-09T16:22:39.209Z,1.63
2022-10-09T16:25:08.947Z,1.60
2022-10-09T16:27:37.699Z,1.40
2022-10-09T16:30:12.073Z,1.60
2022-10-09T16:32:41.007Z,1.50
2022-10-09T16:35:10.645Z,1.75
2022-10-09T16:37:39.337Z,1.63
2022-10-09T16:40:09.261Z,1.50
2022-10-09T16:42:37.930Z,1.40
2022-10-09T16:45:10.367Z,1.70
2022-10-09T16:47:40.427Z,1.65
2022-10-09T16:50:09.980Z,1.98
2022-10-09T16:52:38.646Z,1.92
2022-10-09T16:55:08.673Z,2.05
2022-10-09T16:57:37.316Z,1.98
2022-10-09T17:00:09.328Z,1.70
2022-10-09T17:02:38.048Z,1.95
2022-10-09T17:05:07.808Z,1.80
2022-10-09T17:07:36.450Z,1.85
2022-10-09T17:10:05.867Z,1.73
2022-10-09T17:12:34.880Z,1.90
2022-10-09T17:15:03.729Z,1.70
2022-10-09T17:17:34.153Z,2.10
2022-10-09T17:20:03.310Z,1.92
2022-10-09T17:22:32.586Z,1.58
2022-10-09T17:25:01.259Z,2.05
2022-10-09T17:27:30.203Z,1.80
2022-10-09T17:29:58.787Z,1.77
2022-10-09T17:32:27.863Z,1.80
2022-10-09T17:34:58.031Z,2.45
2022-10-09T17:37:26.818Z,1.90
2022-10-09T17:39:55.497Z,2.00
2022-10-09T17:42:24.493Z,2.13
2022-10-09T17:44:53.108Z,1.70
2022-10-09T17:47:21.805Z,2.13
2022-10-09T17:49:51.770Z,1.90
2022-10-09T17:52:21.783Z,2.08
2022-10-09T17:54:50.532Z,2.25
2022-10-09T17:57:19.175Z,2.90
2022-10-09T17:59:47.720Z,3.17
2022-10-09T18:02:16.491Z,2.60
2022-10-09T18:04:45.087Z,2.92
2022-10-09T18:07:15.059Z,2.90
2022-10-09T18:09:45.369Z,3.10
2022-10-09T18:12:14.044Z,3.00
2022-10-09T18:14:42.663Z,2.95
2022-10-09T18:17:11.317Z,2.70
2022-10-09T18:19:39.915Z,3.63
2022-10-09T18:22:08.537Z,3.15
2022-10-09T18:24:37.156Z,3.50
2022-10-09T18:27:07.218Z,3.83
2022-10-09T18:29:36.019Z,4.65
2022-10-09T18:32:05.833Z,3.28
2022-10-09T18:34:39.026Z,3.63
2022-10-09T18:37:08.610Z,3.58
2022-10-09T18:39:37.268Z,3.20
2022-10-09T18:42:07.433Z,3.30
2022-10-09T18:44:40.288Z,3.70
2022-10-09T18:47:13.064Z,3.40
2022-10-09T18:49:45.686Z,3.05
2022-10-09T18:52:15.483Z,3.70
2022-10-09T18:54:46.106Z,3.05
2022-10-09T18:57:16.653Z,3.10
2022-10-09T18:59:45.555Z,3.58
2022-10-09T19:02:14.193Z,3.38
2022-10-09T19:04:42.801Z,3.70
2022-10-09T19:07:11.439Z,3.80
2022-10-09T19:09:42.922Z,3.92
2022-10-09T19:12:11.657Z,3.70
2022-10-09T19:14:41.660Z,4.07
2022-10-09T19:17:10.271Z,3.15
2022-10-09T19:19:39.136Z,2.95
2022-10-09T19:22:11.668Z,3.10
2022-10-09T19:24:42.796Z,3.78
2022-10-09T19:27:11.673Z,3.90
2022-10-09T19:29:41.742Z,3.25
2022-10-09T19:32:10.340Z,3.30
2022-10-09T19:34:39.172Z,3.13
2022-10-09T19:37:07.892Z,3.67
2022-10-09T19:39:36.565Z,3.75
2022-10-09T19:42:05.355Z,3.33
2022-10-09T19:44:34.030Z,3.22
2022-10-09T19:47:04.168Z,2.90
2022-10-09T19:49:33.275Z,3.78
2022-10-09T19:52:01.908Z,3.50
2022-10-09T19:54:32.230Z,3.47
2022-10-09T19:57:01.137Z,3.42
2022-10-09T19:59:29.911Z,3.22
2022-10-09T20:01:58.564Z,3.22
2022-10-09T20:04:49.518Z,2.85
2022-10-09T20:07:36.925Z,2.90
2022-10-09T20:10:23.980Z,2.22
2022-10-09T20:13:11.132Z,2.55
2022-10-09T20:16:00.248Z,2.13
2022-10-09T20:18:47.794Z,2.22
2022-10-09T20:21:36.687Z,2.30
2022-10-09T20:24:23.679Z,2.63
2022-10-09T20:27:10.767Z,2.35
2022-10-09T20:29:57.852Z,2.80
2022-10-09T20:32:45.221Z,2.60
2022-10-09T20:35:32.732Z,2.75
2022-10-09T20:38:25.524Z,2.93
2022-10-09T20:41:13.116Z,2.60
2022-10-09T20:44:02.523Z,2.55
2022-10-09T20:46:50.023Z,2.70
2022-10-09T20:49:37.425Z,2.63
2022-10-09T20:52:24.447Z,2.78
2022-10-09T20:55:12.965Z,2.60
2022-10-09T20:58:00.197Z,2.80
2022-10-09T21:00:47.382Z,3.00
2022-10-09T21:03:35.439Z,2.80
2022-10-09T21:06:23.291Z,3.13
2022-10-09T21:09:10.572Z,3.70
2022-10-09T21:11:59.276Z,3.53
2022-10-09T21:14:46.785Z,3.25
2022-10-09T21:17:33.821Z,3.45
2022-10-09T21:20:21.220Z,2.92
2022-10-09T21:23:09.824Z,2.53
2022-10-09T21:25:57.119Z,2.70
2022-10-09T21:28:46.946Z,2.95
2022-10-09T21:31:34.988Z,2.72
2022-10-09T21:34:22.357Z,2.33
2022-10-09T21:37:21.444Z,2.58
2022-10-09T21:40:10.302Z,2.70
2022-10-09T21:42:57.782Z,2.45
2022-10-09T21:45:50.503Z,2.17
2022-10-09T21:48:37.718Z,2.28
2022-10-09T21:51:25.265Z,3.10
2022-10-09T21:54:12.620Z,3.05
2022-10-09T21:56:59.828Z,2.93
2022-10-09T21:59:46.795Z,3.00
2022-10-09T22:02:35.419Z,3.67
2022-10-09T22:05:22.787Z,3.05
2022-10-09T22:08:10.508Z,2.80
2022-10-09T22:10:57.606Z,2.92
2022-10-09T22:13:45.348Z,3.10
2022-10-09T22:16:32.481Z,3.33
2022-10-09T22:19:20.898Z,2.70
2022-10-09T22:22:08.398Z,2.67
2022-10-09T22:24:55.932Z,2.78
2022-10-09T22:27:43.176Z,2.90
2022-10-09T22:30:30.255Z,2.83
2022-10-09T22:33:17.383Z,3.08
2022-10-09T22:36:09.985Z,2.75
2022-10-09T22:39:00.126Z,2.40
2022-10-09T22:41:47.058Z,2.38
2022-10-09T22:44:34.300Z,2.38
2022-10-09T22:47:21.721Z,2.63
2022-10-09T22:50:10.267Z,2.60
2022-10-09T22:52:58.649Z,2.92
2022-10-09T22:55:45.924Z,2.63
2022-10-09T22:58:33.214Z,2.38
2022-10-09T23:01:30.278Z,2.60
2022-10-09T23:04:19.361Z,2.40
2022-10-09T23:07:06.494Z,2.55
2022-10-09T23:09:54.886Z,2.45
2022-10-09T23:12:42.182Z,2.50
2022-10-09T23:15:29.511Z,2.53
2022-10-09T23:18:16.612Z,2.70
2022-10-09T23:21:04.754Z,2.20
2022-10-09T23:23:53.247Z,2.83
2022-10-09T23:26:42.379Z,2.50
2022-10-09T23:29:29.685Z,2.30
2022-10-09T23:32:16.757Z,2.90
2022-10-09T23:35:04.122Z,2.90
2022-10-09T23:37:53.639Z,3.15
2022-10-09T23:40:40.801Z,2.88
2022-10-09T23:43:30.315Z,2.97
2022-10-09T23:46:20.713Z,2.87
2022-10-09T23:49:07.965Z,2.70
2022-10-09T23:51:55.173Z,2.78
2022-10-09T23:54:42.659Z,2.78
2022-10-09T23:57:29.735Z,2.57
